Serenade Of The Seas — C6FV8 — position and weather

sailwx.info

Track history (hours):
 
Tides and Currents Weather Stations Pressure Air Temp Water Temp Dewpoint Dewpoint Depression Visibility Wind Speed Wind Dir Waves Ship Positions

Serenade Of The Seas

Operator: Royal Caribbean Cruises Ltd

Last reported at 2017-Jul-22 16:30 UTC. Time now 2017-Jul-22 16:56 UTC.
Position N 59°11' E 020°24'.

Length 294 m; draft 8.6 m.

Type: Passenger vessel. MMSI: 311492000.

Date/timePositionNaut miles runAvg speedWind from/ knotsBaromVisibWave heightAir tempDewpointWater temp
2017-Jul-22 16:30N 59°11' E 020°24'4 8.1
2017-Jul-22 16:00N 59°07' E 020°27'4 8.2
2017-Jul-22 15:29N 59°04' E 020°30'5 8.3
2017-Jul-22 14:55N 58°59' E 020°34'8 8.4
2017-Jul-22 14:01N 58°53' E 020°41'5 8.5
2017-Jul-22 13:24N 58°48' E 020°45'3 8.4
2017-Jul-22 13:01N 58°45' E 020°48'4 8.3
2017-Jul-22 12:30N 58°41' E 020°51'4 8.2
2017-Jul-22 11:59N 58°37' E 020°54'4 8.2
2017-Jul-22 11:30N 58°34' E 020°58'17 8.3
2017-Jul-22 09:25N 58°18' E 021°11'36 1.0
2017-Jul-20 21:18N 58°53' E 021°24'620.8
2017-Jul-20 21:00N 58°59' E 021°28'1020.1
2017-Jul-20 20:30N 59°08' E 021°37'713.7
2017-Jul-20 20:00N 59°12' E 021°47'918.3
2017-Jul-20 19:30N 59°18' E 022°01'816.0
2017-Jul-20 19:00N 59°23' E 022°14'917.7
2017-Jul-20 18:30N 59°28' E 022°28'917.7
2017-Jul-20 18:00N 59°32' E 022°43'917.7
2017-Jul-20 17:31N 59°34' E 023°00'917.5
2017-Jul-20 17:00N 59°34' E 023°18'918.0
2017-Jul-20 16:30N 59°33' E 023°35'917.3
2017-Jul-20 16:00N 59°33' E 023°52'917.5
2017-Jul-20 15:30N 59°31' E 024°09'816.8
2017-Jul-20 15:00N 59°30' E 024°26'1010.5
2017-Jul-20 14:00N 59°28' E 024°46'1 2.2
2017-Jul-20 13:29N 59°27' E 024°46'0 0.0
2017-Jul-20 12:59N 59°27' E 024°46'0 0.0
2017-Jul-20 12:29N 59°27' E 024°46'0 0.0
2017-Jul-20 11:59N 59°27' E 024°46'0 0.0
2017-Jul-20 11:29N 59°27' E 024°46'0 0.0
2017-Jul-20 10:59N 59°27' E 024°46'0 0.0
2017-Jul-20 10:29N 59°27' E 024°46'0 0.0
2017-Jul-20 09:59N 59°27' E 024°46'0 0.0
2017-Jul-20 09:29N 59°27' E 024°46'0 0.0
2017-Jul-20 08:59N 59°27' E 024°46'0 0.0
2017-Jul-20 08:29N 59°27' E 024°46'0 0.0
2017-Jul-20 07:59N 59°27' E 024°46'0 0.0
2017-Jul-20 07:29N 59°27' E 024°46'0 0.0
2017-Jul-20 06:59N 59°27' E 024°46'0 0.0
2017-Jul-20 06:29N 59°27' E 024°46'0 0.0
2017-Jul-20 05:59N 59°27' E 024°46'0 0.0
2017-Jul-20 05:29N 59°27' E 024°46'0 0.0
2017-Jul-20 04:59N 59°27' E 024°46'0 0.0
2017-Jul-20 04:29N 59°27' E 024°46'0 0.0
2017-Jul-20 04:00N 59°27' E 024°46'2 4.4
2017-Jul-20 03:31N 59°29' E 024°45'815.1
2017-Jul-20 03:00N 59°36' E 024°40'612.0
2017-Jul-20 02:31N 59°41' E 024°45'816.9
2017-Jul-20 02:01N 59°49' E 024°53'917.1
2017-Jul-20 01:31N 59°51' E 025°10'917.5
2017-Jul-20 01:01N 59°53' E 025°27'917.5
2017-Jul-20 00:31N 59°54' E 025°44'917.7
2017-Jul-20 00:01N 59°57' E 026°01'918.1
2017-Jul-19 23:31N 59°59' E 026°19'918.8
2017-Jul-19 23:01N 60°01' E 026°37'918.8
2017-Jul-19 22:30N 59°60' E 026°56'918.1
2017-Jul-19 22:01N 60°03' E 027°13'919.0
2017-Jul-19 21:31N 60°08' E 027°29'918.7
2017-Jul-19 21:01N 60°12' E 027°46'1019.0
2017-Jul-19 20:30N 60°10' E 028°04'918.4
2017-Jul-19 20:01N 60°06' E 028°21'918.4
2017-Jul-19 19:31N 60°03' E 028°39'916.5
2017-Jul-19 18:58N 60°03' E 028°56'2114.7
2017-Jul-19 17:30N 59°60' E 029°39'5 9.7
2017-Jul-19 17:01N 59°58' E 029°48'611.7
2017-Jul-19 16:30N 59°56' E 029°59'5 9.4
2017-Jul-19 16:00N 59°57' E 030°07'2 3.6
2017-Jul-19 15:29N 59°57' E 030°11'0 0.0
2017-Jul-19 14:59N 59°57' E 030°11'0 0.0
2017-Jul-19 14:29N 59°57' E 030°11'0 0.0
2017-Jul-19 13:59N 59°57' E 030°11'0 0.0
2017-Jul-19 13:29N 59°57' E 030°11'0 0.0
2017-Jul-19 12:59N 59°57' E 030°11'0 0.0
2017-Jul-18 03:49N 59°57' E 030°11'1 1.7
2017-Jul-18 03:30N 59°57' E 030°11'4 7.1
2017-Jul-18 03:00N 59°56' E 030°04'4 8.6
2017-Jul-18 02:30N 59°56' E 029°55'5 9.3
2017-Jul-18 02:00N 59°58' E 029°47'2612.2
2017-Jul-17 23:51N 60°02' E 028°55'515.0
2017-Jul-17 23:30N 60°02' E 028°45'714.7
2017-Jul-17 23:01N 60°03' E 028°30'815.4
2017-Jul-17 22:30N 60°07' E 028°17'815.7
2017-Jul-17 22:01N 60°09' E 028°02'815.4
2017-Jul-17 21:31N 60°11' E 027°47'815.5
2017-Jul-17 21:01N 60°07' E 027°33'816.5
2017-Jul-17 20:31N 60°03' E 027°19'815.4
2017-Jul-17 20:00N 59°58' E 027°06'816.3
2017-Jul-17 19:30N 59°59' E 026°50'816.9
2017-Jul-17 19:00N 59°59' E 026°33'714.4
2017-Jul-17 18:31N 59°57' E 026°19'816.2
2017-Jul-17 18:00N 59°55' E 026°03'816.2
2017-Jul-17 17:30N 59°53' E 025°48'816.5
2017-Jul-17 17:00N 59°51' E 025°32'816.5
2017-Jul-17 16:30N 59°55' E 025°17'816.5
2017-Jul-17 16:01N 59°59' E 025°02'713.4
2017-Jul-17 15:30N 60°04' E 024°53'510.4
2017-Jul-17 15:00N 60°09' E 024°55'0 0.0
2017-Jul-17 14:29N 60°09' E 024°55'0 0.0
2017-Jul-17 13:59N 60°09' E 024°55'0 0.0
2017-Jul-17 13:23N 60°09' E 024°55'0 0.0
2017-Jul-17 12:59N 60°09' E 024°55'0 0.0
2017-Jul-17 12:29N 60°09' E 024°55'0 0.0
2017-Jul-17 11:59N 60°09' E 024°55'0 0.0
2017-Jul-17 11:29N 60°09' E 024°55'0 0.0
2017-Jul-17 10:59N 60°09' E 024°55'0 0.0
2017-Jul-17 10:29N 60°09' E 024°55'0 0.0
2017-Jul-17 09:59N 60°09' E 024°55'0 0.0
2017-Jul-17 09:29N 60°09' E 024°55'0 0.0
2017-Jul-17 08:59N 60°09' E 024°55'0 0.0
2017-Jul-17 08:29N 60°09' E 024°55'0 0.0
2017-Jul-17 07:59N 60°09' E 024°55'0 0.2
2017-Jul-17 07:30N 60°09' E 024°55'2 4.8
2017-Jul-17 07:00N 60°07' E 024°54'713.0
2017-Jul-17 06:30N 60°00' E 024°57'815.2
2017-Jul-17 06:00N 59°53' E 024°56'917.6
2017-Jul-17 05:30N 59°46' E 024°44'1019.1
2017-Jul-17 05:00N 59°43' E 024°26'1019.1
2017-Jul-17 04:30N 59°41' E 024°08'1019.2
2017-Jul-17 04:00N 59°38' E 023°49'919.0
2017-Jul-17 03:31N 59°35' E 023°32'1019.1
2017-Jul-17 03:00N 59°32' E 023°14'1019.3
2017-Jul-17 02:30N 59°28' E 022°56'1019.3
2017-Jul-17 02:00N 59°25' E 022°38'919.0
2017-Jul-17 01:30N 59°22' E 022°20'918.9
2017-Jul-17 01:00N 59°23' E 022°02'918.9
2017-Jul-17 00:31N 59°24' E 021°43'918.9
2017-Jul-17 00:00N 59°24' E 021°25'918.8
2017-Jul-16 23:30N 59°25' E 021°06'918.7
2017-Jul-16 23:00N 59°26' E 020°48'918.9
2017-Jul-16 22:31N 59°25' E 020°29'1019.0
2017-Jul-16 22:00N 59°26' E 020°11'917.1
2017-Jul-16 21:30N 59°34' E 020°04'1019.2
2017-Jul-16 21:00N 59°40' E 019°51'1020.0
2017-Jul-16 20:30N 59°47' E 019°37'815.2
2017-Jul-16 20:00N 59°46' E 019°22'815.6
2017-Jul-16 19:30N 59°43' E 019°07'714.0
2017-Jul-16 19:01N 59°40' E 018°56'510.5
2017-Jul-16 18:31N 59°36' E 018°47'611.7
2017-Jul-16 18:00N 59°34' E 018°37'7 9.9
2017-Jul-16 17:20N 59°29' E 018°27'411.2
2017-Jul-16 17:01N 59°26' E 018°23'5 9.8
2017-Jul-16 16:30N 59°21' E 018°26'5 9.6
2017-Jul-16 16:00N 59°22' E 018°17'5 9.2
2017-Jul-16 15:30N 59°21' E 018°08'0 0.6
2017-Jul-16 15:01N 59°21' E 018°08'0 0.0
2017-Jul-16 14:31N 59°21' E 018°08'0 0.0
2017-Jul-16 13:55N 59°21' E 018°08'0 0.0
2017-Jul-16 13:31N 59°21' E 018°08'0 0.0
2017-Jul-16 13:00N 59°21' E 018°08'0 0.0
2017-Jul-16 12:31N 59°21' E 018°08'0 0.0
2017-Jul-16 12:01N 59°21' E 018°08'0 0.0
2017-Jul-16 11:19N 59°21' E 018°08'0 0.0
2017-Jul-16 11:01N 59°21' E 018°08'0 0.0
2017-Jul-16 10:25N 59°21' E 018°08'0 0.0
2017-Jul-16 10:01N 59°21' E 018°08'0 0.0
2017-Jul-16 09:25N 59°21' E 018°08'0 0.0
2017-Jul-16 08:55N 59°21' E 018°08'0 0.0
2017-Jul-16 08:31N 59°21' E 018°08'0 0.0
2017-Jul-16 08:00N 59°21' E 018°08'0 0.0
2017-Jul-16 07:31N 59°21' E 018°08'0 0.0
2017-Jul-16 06:49N 59°21' E 018°08'0 0.0
2017-Jul-16 06:30N 59°21' E 018°08'0 0.0
2017-Jul-16 06:00N 59°21' E 018°08'0 0.0
2017-Jul-16 05:31N 59°21' E 018°08'0 0.0
2017-Jul-16 04:55N 59°21' E 018°08'1 1.9
2017-Jul-16 04:30N 59°20' E 018°09'5 9.5
2017-Jul-16 03:59N 59°23' E 018°18'5 9.8
2017-Jul-16 03:30N 59°22' E 018°27'5 9.6
2017-Jul-16 02:59N 59°27' E 018°25'510.8
2017-Jul-16 02:30N 59°31' E 018°30'510.2
2017-Jul-16 02:00N 59°34' E 018°39'510.6
2017-Jul-16 01:30N 59°36' E 018°48'5 9.9
2017-Jul-16 01:01N 59°40' E 018°55'815.8
2017-Jul-16 00:30N 59°44' E 019°09'815.7
2017-Jul-16 00:01N 59°46' E 019°23'4 8.1
2017-Jul-15 23:30N 59°48' E 019°31'4 7.8
2017-Jul-15 23:00N 59°50' E 019°38'3 6.8
2017-Jul-15 22:30N 59°48' E 019°43'3 6.9
2017-Jul-15 22:00N 59°46' E 019°49'3 6.3
2017-Jul-15 21:31N 59°44' E 019°53'3 6.5
2017-Jul-15 21:01N 59°41' E 019°58'4 7.5
2017-Jul-15 20:30N 59°39' E 020°03'4 7.3
2017-Jul-15 20:00N 59°36' E 020°08'3 5.3
2017-Jul-15 19:30N 59°34' E 020°11'4 7.5
2017-Jul-15 19:00N 59°30' E 020°11'3 6.8
2017-Jul-15 18:31N 59°27' E 020°11'4 7.3
2017-Jul-15 18:01N 59°23' E 020°13'4 7.7
2017-Jul-15 17:31N 59°20' E 020°16'4 7.9
2017-Jul-15 17:00N 59°16' E 020°19'4 8.0
2017-Jul-15 16:31N 59°12' E 020°22'4 8.0
2017-Jul-15 16:01N 59°09' E 020°26'4 8.0
2017-Jul-15 15:31N 59°05' E 020°29'4 8.0
2017-Jul-15 15:01N 59°02' E 020°32'8 8.0
2017-Jul-15 14:00N 58°54' E 020°39'4 7.8
2017-Jul-15 13:30N 58°51' E 020°42'4 7.8
2017-Jul-15 13:01N 58°47' E 020°45'4 7.9
2017-Jul-15 12:31N 58°44' E 020°48'4 7.9
2017-Jul-15 12:01N 58°40' E 020°52'4 8.1
2017-Jul-15 11:31N 58°36' E 020°55'4 8.2
2017-Jul-15 11:01N 58°33' E 020°58'4 8.1
2017-Jul-15 10:31N 58°29' E 021°02'4 8.1
2017-Jul-15 10:00N 58°25' E 021°05'4 8.2
2017-Jul-15 09:31N 58°22' E 021°08'4 8.2
2017-Jul-15 09:01N 58°18' E 021°11'4 8.1
2017-Jul-15 08:31N 58°14' E 021°15'4 8.2
2017-Jul-15 08:01N 58°11' E 021°18'5 8.4
2017-Jul-15 07:22N 58°06' E 021°22'3 8.3
2017-Jul-15 07:00N 58°03' E 021°25'4 8.1
2017-Jul-15 06:30N 57°59' E 021°28'4 8.1
2017-Jul-15 06:00N 57°56' E 021°31'4 8.2
2017-Jul-15 05:28N 57°52' E 021°35'4 8.2
2017-Jul-15 05:01N 57°49' E 021°40'4 8.6
2017-Jul-15 04:31N 57°46' E 021°45'611.8
2017-Jul-15 04:01N 57°41' E 021°52'4 8.2
2017-Jul-15 03:31N 57°41' E 021°60'4 7.8
2017-Jul-15 03:01N 57°43' E 022°06'4 7.8
2017-Jul-15 02:30N 57°44' E 022°13'8 7.7
2017-Jul-15 01:25N 57°49' E 022°27'4 7.8
2017-Jul-15 00:54N 57°50' E 022°33'3 7.6
2017-Jul-15 00:30N 57°51' E 022°39'4 8.0
2017-Jul-15 00:00N 57°49' E 022°44'4 8.3
2017-Jul-14 23:30N 57°46' E 022°50'5 8.2
2017-Jul-14 22:53N 57°42' E 022°56'3 8.1
2017-Jul-14 22:30N 57°40' E 022°60'92 3.6
2017-Jul-13 20:32N 58°58' E 021°28'120.2
2017-Jul-13 20:30N 58°59' E 021°28'714.9
2017-Jul-13 20:01N 59°06' E 021°34'917.8
2017-Jul-13 19:30N 59°12' E 021°45'714.6
2017-Jul-13 19:01N 59°17' E 021°57'816.4
2017-Jul-13 18:30N 59°21' E 022°10'816.7
2017-Jul-13 18:01N 59°26' E 022°23'816.8
2017-Jul-13 17:30N 59°31' E 022°37'816.6
2017-Jul-13 17:00N 59°33' E 022°53'816.4
2017-Jul-13 16:30N 59°35' E 023°09'816.2
2017-Jul-13 16:00N 59°34' E 023°24'816.3
2017-Jul-13 15:30N 59°33' E 023°40'816.7
2017-Jul-13 15:00N 59°32' E 023°57'816.4
2017-Jul-13 14:30N 59°31' E 024°13'815.9
2017-Jul-13 14:00N 59°30' E 024°28'715.0
2017-Jul-13 13:31N 59°32' E 024°43'510.8
2017-Jul-13 13:01N 59°27' E 024°46'0 0.4
2017-Jul-13 12:28N 59°27' E 024°46'0 0.0
2017-Jul-13 11:58N 59°27' E 024°46'0 0.0
2017-Jul-13 11:28N 59°27' E 024°46'0 0.0
2017-Jul-13 10:58N 59°27' E 024°46'0 0.0
2017-Jul-13 10:28N 59°27' E 024°46'0 0.0
2017-Jul-13 09:58N 59°27' E 024°46'0 0.0
2017-Jul-13 09:28N 59°27' E 024°46'0 0.0
2017-Jul-13 08:58N 59°27' E 024°46'0 0.0
2017-Jul-13 08:28N 59°27' E 024°46'0 0.0
2017-Jul-13 07:58N 59°27' E 024°46'0 0.0
2017-Jul-13 07:28N 59°27' E 024°46'0 0.0
2017-Jul-13 06:58N 59°27' E 024°46'0 0.0
2017-Jul-13 06:28N 59°27' E 024°46'0 0.0
2017-Jul-13 05:58N 59°27' E 024°46'0 0.0
2017-Jul-13 05:28N 59°27' E 024°46'0 0.0
2017-Jul-13 04:58N 59°27' E 024°46'0 0.0
2017-Jul-13 04:28N 59°27' E 024°46'0 0.0
2017-Jul-13 03:58N 59°27' E 024°46'2 3.4
2017-Jul-13 03:31N 59°28' E 024°45'714.8
2017-Jul-13 03:01N 59°35' E 024°40'713.1
2017-Jul-13 02:31N 59°42' E 024°45'917.4
2017-Jul-13 02:00N 59°49' E 024°54'917.9
2017-Jul-13 01:30N 59°52' E 025°11'917.9
2017-Jul-13 01:00N 59°53' E 025°28'918.3
2017-Jul-13 00:30N 59°55' E 025°46'918.2
2017-Jul-13 00:00N 59°57' E 026°04'918.5
2017-Jul-12 23:31N 59°59' E 026°22'1019.1
2017-Jul-12 23:01N 60°01' E 026°41'1020.9
2017-Jul-12 22:31N 59°59' E 027°01'1019.5
2017-Jul-12 22:00N 60°04' E 027°18'918.6
2017-Jul-12 21:30N 60°09' E 027°34'816.8
2017-Jul-12 21:00N 60°12' E 027°50'1019.1
2017-Jul-12 20:30N 60°09' E 028°09'917.8
2017-Jul-12 20:01N 60°05' E 028°24'1019.9
2017-Jul-12 19:30N 60°03' E 028°44'816.9
2017-Jul-12 19:00N 60°02' E 029°01'918.5
2017-Jul-12 18:30N 60°02' E 029°19'1312.4
2017-Jul-12 17:29N 59°59' E 029°44'5 9.9
2017-Jul-12 17:00N 59°57' E 029°52'510.5
2017-Jul-12 16:30N 59°56' E 030°02'  
Track history (hours):
 
Tides and Currents Weather Stations Pressure Air Temp Water Temp Dewpoint Dewpoint Depression Visibility Wind Speed Wind Dir Waves Ship Positions

Serenade Of The Seas

Operator: Royal Caribbean Cruises Ltd

Last reported at 2017-Jul-22 16:30 UTC. Time now 2017-Jul-22 16:56 UTC.
Position N 59°11' E 020°24'.

Length 294 m; draft 8.6 m.

Type: Passenger vessel. MMSI: 311492000.

Date/timePositionNaut miles runAvg speedWind from/ knotsBaromVisibWave heightAir tempDewpointWater temp
2017-Jul-22 16:30N 59°11' E 020°24'4 8.1
2017-Jul-22 16:00N 59°07' E 020°27'4 8.2
2017-Jul-22 15:29N 59°04' E 020°30'5 8.3
2017-Jul-22 14:55N 58°59' E 020°34'8 8.4
2017-Jul-22 14:01N 58°53' E 020°41'5 8.5
2017-Jul-22 13:24N 58°48' E 020°45'3 8.4
2017-Jul-22 13:01N 58°45' E 020°48'4 8.3
2017-Jul-22 12:30N 58°41' E 020°51'4 8.2
2017-Jul-22 11:59N 58°37' E 020°54'4 8.2
2017-Jul-22 11:30N 58°34' E 020°58'17 8.3
2017-Jul-22 09:25N 58°18' E 021°11'36 1.0
2017-Jul-20 21:18N 58°53' E 021°24'620.8
2017-Jul-20 21:00N 58°59' E 021°28'1020.1
2017-Jul-20 20:30N 59°08' E 021°37'713.7
2017-Jul-20 20:00N 59°12' E 021°47'918.3
2017-Jul-20 19:30N 59°18' E 022°01'816.0
2017-Jul-20 19:00N 59°23' E 022°14'917.7
2017-Jul-20 18:30N 59°28' E 022°28'917.7
2017-Jul-20 18:00N 59°32' E 022°43'917.7
2017-Jul-20 17:31N 59°34' E 023°00'917.5
2017-Jul-20 17:00N 59°34' E 023°18'918.0
2017-Jul-20 16:30N 59°33' E 023°35'917.3
2017-Jul-20 16:00N 59°33' E 023°52'917.5
2017-Jul-20 15:30N 59°31' E 024°09'816.8
2017-Jul-20 15:00N 59°30' E 024°26'1010.5
2017-Jul-20 14:00N 59°28' E 024°46'1 2.2
2017-Jul-20 13:29N 59°27' E 024°46'0 0.0
2017-Jul-20 12:59N 59°27' E 024°46'0 0.0
2017-Jul-20 12:29N 59°27' E 024°46'0 0.0
2017-Jul-20 11:59N 59°27' E 024°46'0 0.0
2017-Jul-20 11:29N 59°27' E 024°46'0 0.0
2017-Jul-20 10:59N 59°27' E 024°46'0 0.0
2017-Jul-20 10:29N 59°27' E 024°46'0 0.0
2017-Jul-20 09:59N 59°27' E 024°46'0 0.0
2017-Jul-20 09:29N 59°27' E 024°46'0 0.0
2017-Jul-20 08:59N 59°27' E 024°46'0 0.0
2017-Jul-20 08:29N 59°27' E 024°46'0 0.0
2017-Jul-20 07:59N 59°27' E 024°46'0 0.0
2017-Jul-20 07:29N 59°27' E 024°46'0 0.0
2017-Jul-20 06:59N 59°27' E 024°46'0 0.0
2017-Jul-20 06:29N 59°27' E 024°46'0 0.0
2017-Jul-20 05:59N 59°27' E 024°46'0 0.0
2017-Jul-20 05:29N 59°27' E 024°46'0 0.0
2017-Jul-20 04:59N 59°27' E 024°46'0 0.0
2017-Jul-20 04:29N 59°27' E 024°46'0 0.0
2017-Jul-20 04:00N 59°27' E 024°46'2 4.4
2017-Jul-20 03:31N 59°29' E 024°45'815.1
2017-Jul-20 03:00N 59°36' E 024°40'612.0
2017-Jul-20 02:31N 59°41' E 024°45'816.9
2017-Jul-20 02:01N 59°49' E 024°53'917.1
2017-Jul-20 01:31N 59°51' E 025°10'917.5
2017-Jul-20 01:01N 59°53' E 025°27'917.5
2017-Jul-20 00:31N 59°54' E 025°44'917.7
2017-Jul-20 00:01N 59°57' E 026°01'918.1
2017-Jul-19 23:31N 59°59' E 026°19'918.8
2017-Jul-19 23:01N 60°01' E 026°37'918.8
2017-Jul-19 22:30N 59°60' E 026°56'918.1
2017-Jul-19 22:01N 60°03' E 027°13'919.0
2017-Jul-19 21:31N 60°08' E 027°29'918.7
2017-Jul-19 21:01N 60°12' E 027°46'1019.0
2017-Jul-19 20:30N 60°10' E 028°04'918.4
2017-Jul-19 20:01N 60°06' E 028°21'918.4
2017-Jul-19 19:31N 60°03' E 028°39'916.5
2017-Jul-19 18:58N 60°03' E 028°56'2114.7
2017-Jul-19 17:30N 59°60' E 029°39'5 9.7
2017-Jul-19 17:01N 59°58' E 029°48'611.7
2017-Jul-19 16:30N 59°56' E 029°59'5 9.4
2017-Jul-19 16:00N 59°57' E 030°07'2 3.6
2017-Jul-19 15:29N 59°57' E 030°11'0 0.0
2017-Jul-19 14:59N 59°57' E 030°11'0 0.0
2017-Jul-19 14:29N 59°57' E 030°11'0 0.0
2017-Jul-19 13:59N 59°57' E 030°11'0 0.0
2017-Jul-19 13:29N 59°57' E 030°11'0 0.0
2017-Jul-19 12:59N 59°57' E 030°11'0 0.0
2017-Jul-18 03:49N 59°57' E 030°11'1 1.7
2017-Jul-18 03:30N 59°57' E 030°11'4 7.1
2017-Jul-18 03:00N 59°56' E 030°04'4 8.6
2017-Jul-18 02:30N 59°56' E 029°55'5 9.3
2017-Jul-18 02:00N 59°58' E 029°47'2612.2
2017-Jul-17 23:51N 60°02' E 028°55'515.0
2017-Jul-17 23:30N 60°02' E 028°45'714.7
2017-Jul-17 23:01N 60°03' E 028°30'815.4
2017-Jul-17 22:30N 60°07' E 028°17'815.7
2017-Jul-17 22:01N 60°09' E 028°02'815.4
2017-Jul-17 21:31N 60°11' E 027°47'815.5
2017-Jul-17 21:01N 60°07' E 027°33'816.5
2017-Jul-17 20:31N 60°03' E 027°19'815.4
2017-Jul-17 20:00N 59°58' E 027°06'816.3
2017-Jul-17 19:30N 59°59' E 026°50'816.9
2017-Jul-17 19:00N 59°59' E 026°33'714.4
2017-Jul-17 18:31N 59°57' E 026°19'816.2
2017-Jul-17 18:00N 59°55' E 026°03'816.2
2017-Jul-17 17:30N 59°53' E 025°48'816.5
2017-Jul-17 17:00N 59°51' E 025°32'816.5
2017-Jul-17 16:30N 59°55' E 025°17'816.5
2017-Jul-17 16:01N 59°59' E 025°02'713.4
2017-Jul-17 15:30N 60°04' E 024°53'510.4
2017-Jul-17 15:00N 60°09' E 024°55'0 0.0
2017-Jul-17 14:29N 60°09' E 024°55'0 0.0
2017-Jul-17 13:59N 60°09' E 024°55'0 0.0
2017-Jul-17 13:23N 60°09' E 024°55'0 0.0
2017-Jul-17 12:59N 60°09' E 024°55'0 0.0
2017-Jul-17 12:29N 60°09' E 024°55'0 0.0
2017-Jul-17 11:59N 60°09' E 024°55'0 0.0
2017-Jul-17 11:29N 60°09' E 024°55'0 0.0
2017-Jul-17 10:59N 60°09' E 024°55'0 0.0
2017-Jul-17 10:29N 60°09' E 024°55'0 0.0
2017-Jul-17 09:59N 60°09' E 024°55'0 0.0
2017-Jul-17 09:29N 60°09' E 024°55'0 0.0
2017-Jul-17 08:59N 60°09' E 024°55'0 0.0
2017-Jul-17 08:29N 60°09' E 024°55'0 0.0
2017-Jul-17 07:59N 60°09' E 024°55'0 0.2
2017-Jul-17 07:30N 60°09' E 024°55'2 4.8
2017-Jul-17 07:00N 60°07' E 024°54'713.0
2017-Jul-17 06:30N 60°00' E 024°57'815.2
2017-Jul-17 06:00N 59°53' E 024°56'917.6
2017-Jul-17 05:30N 59°46' E 024°44'1019.1
2017-Jul-17 05:00N 59°43' E 024°26'1019.1
2017-Jul-17 04:30N 59°41' E 024°08'1019.2
2017-Jul-17 04:00N 59°38' E 023°49'919.0
2017-Jul-17 03:31N 59°35' E 023°32'1019.1
2017-Jul-17 03:00N 59°32' E 023°14'1019.3
2017-Jul-17 02:30N 59°28' E 022°56'1019.3
2017-Jul-17 02:00N 59°25' E 022°38'919.0
2017-Jul-17 01:30N 59°22' E 022°20'918.9
2017-Jul-17 01:00N 59°23' E 022°02'918.9
2017-Jul-17 00:31N 59°24' E 021°43'918.9
2017-Jul-17 00:00N 59°24' E 021°25'918.8
2017-Jul-16 23:30N 59°25' E 021°06'918.7
2017-Jul-16 23:00N 59°26' E 020°48'918.9
2017-Jul-16 22:31N 59°25' E 020°29'1019.0
2017-Jul-16 22:00N 59°26' E 020°11'917.1
2017-Jul-16 21:30N 59°34' E 020°04'1019.2
2017-Jul-16 21:00N 59°40' E 019°51'1020.0
2017-Jul-16 20:30N 59°47' E 019°37'815.2
2017-Jul-16 20:00N 59°46' E 019°22'815.6
2017-Jul-16 19:30N 59°43' E 019°07'714.0
2017-Jul-16 19:01N 59°40' E 018°56'510.5
2017-Jul-16 18:31N 59°36' E 018°47'611.7
2017-Jul-16 18:00N 59°34' E 018°37'7 9.9
2017-Jul-16 17:20N 59°29' E 018°27'411.2
2017-Jul-16 17:01N 59°26' E 018°23'5 9.8
2017-Jul-16 16:30N 59°21' E 018°26'5 9.6
2017-Jul-16 16:00N 59°22' E 018°17'5 9.2
2017-Jul-16 15:30N 59°21' E 018°08'0 0.6
2017-Jul-16 15:01N 59°21' E 018°08'0 0.0
2017-Jul-16 14:31N 59°21' E 018°08'0 0.0
2017-Jul-16 13:55N 59°21' E 018°08'0 0.0
2017-Jul-16 13:31N 59°21' E 018°08'0 0.0
2017-Jul-16 13:00N 59°21' E 018°08'0 0.0
2017-Jul-16 12:31N 59°21' E 018°08'0 0.0
2017-Jul-16 12:01N 59°21' E 018°08'0 0.0
2017-Jul-16 11:19N 59°21' E 018°08'0 0.0
2017-Jul-16 11:01N 59°21' E 018°08'0 0.0
2017-Jul-16 10:25N 59°21' E 018°08'0 0.0
2017-Jul-16 10:01N 59°21' E 018°08'0 0.0
2017-Jul-16 09:25N 59°21' E 018°08'0 0.0
2017-Jul-16 08:55N 59°21' E 018°08'0 0.0
2017-Jul-16 08:31N 59°21' E 018°08'0 0.0
2017-Jul-16 08:00N 59°21' E 018°08'0 0.0
2017-Jul-16 07:31N 59°21' E 018°08'0 0.0
2017-Jul-16 06:49N 59°21' E 018°08'0 0.0
2017-Jul-16 06:30N 59°21' E 018°08'0 0.0
2017-Jul-16 06:00N 59°21' E 018°08'0 0.0
2017-Jul-16 05:31N 59°21' E 018°08'0 0.0
2017-Jul-16 04:55N 59°21' E 018°08'1 1.9
2017-Jul-16 04:30N 59°20' E 018°09'5 9.5
2017-Jul-16 03:59N 59°23' E 018°18'5 9.8
2017-Jul-16 03:30N 59°22' E 018°27'5 9.6
2017-Jul-16 02:59N 59°27' E 018°25'510.8
2017-Jul-16 02:30N 59°31' E 018°30'510.2
2017-Jul-16 02:00N 59°34' E 018°39'510.6
2017-Jul-16 01:30N 59°36' E 018°48'5 9.9
2017-Jul-16 01:01N 59°40' E 018°55'815.8
2017-Jul-16 00:30N 59°44' E 019°09'815.7
2017-Jul-16 00:01N 59°46' E 019°23'4 8.1
2017-Jul-15 23:30N 59°48' E 019°31'4 7.8
2017-Jul-15 23:00N 59°50' E 019°38'3 6.8
2017-Jul-15 22:30N 59°48' E 019°43'3 6.9
2017-Jul-15 22:00N 59°46' E 019°49'3 6.3
2017-Jul-15 21:31N 59°44' E 019°53'3 6.5
2017-Jul-15 21:01N 59°41' E 019°58'4 7.5
2017-Jul-15 20:30N 59°39' E 020°03'4 7.3
2017-Jul-15 20:00N 59°36' E 020°08'3 5.3
2017-Jul-15 19:30N 59°34' E 020°11'4 7.5
2017-Jul-15 19:00N 59°30' E 020°11'3 6.8
2017-Jul-15 18:31N 59°27' E 020°11'4 7.3
2017-Jul-15 18:01N 59°23' E 020°13'4 7.7
2017-Jul-15 17:31N 59°20' E 020°16'4 7.9
2017-Jul-15 17:00N 59°16' E 020°19'4 8.0
2017-Jul-15 16:31N 59°12' E 020°22'4 8.0
2017-Jul-15 16:01N 59°09' E 020°26'4 8.0
2017-Jul-15 15:31N 59°05' E 020°29'4 8.0
2017-Jul-15 15:01N 59°02' E 020°32'8 8.0
2017-Jul-15 14:00N 58°54' E 020°39'4 7.8
2017-Jul-15 13:30N 58°51' E 020°42'4 7.8
2017-Jul-15 13:01N 58°47' E 020°45'4 7.9
2017-Jul-15 12:31N 58°44' E 020°48'4 7.9
2017-Jul-15 12:01N 58°40' E 020°52'4 8.1
2017-Jul-15 11:31N 58°36' E 020°55'4 8.2
2017-Jul-15 11:01N 58°33' E 020°58'4 8.1
2017-Jul-15 10:31N 58°29' E 021°02'4 8.1
2017-Jul-15 10:00N 58°25' E 021°05'4 8.2
2017-Jul-15 09:31N 58°22' E 021°08'4 8.2
2017-Jul-15 09:01N 58°18' E 021°11'4 8.1
2017-Jul-15 08:31N 58°14' E 021°15'4 8.2
2017-Jul-15 08:01N 58°11' E 021°18'5 8.4
2017-Jul-15 07:22N 58°06' E 021°22'3 8.3
2017-Jul-15 07:00N 58°03' E 021°25'4 8.1
2017-Jul-15 06:30N 57°59' E 021°28'4 8.1
2017-Jul-15 06:00N 57°56' E 021°31'4 8.2
2017-Jul-15 05:28N 57°52' E 021°35'4 8.2
2017-Jul-15 05:01N 57°49' E 021°40'4 8.6
2017-Jul-15 04:31N 57°46' E 021°45'611.8
2017-Jul-15 04:01N 57°41' E 021°52'4 8.2
2017-Jul-15 03:31N 57°41' E 021°60'4 7.8
2017-Jul-15 03:01N 57°43' E 022°06'4 7.8
2017-Jul-15 02:30N 57°44' E 022°13'8 7.7
2017-Jul-15 01:25N 57°49' E 022°27'4 7.8
2017-Jul-15 00:54N 57°50' E 022°33'3 7.6
2017-Jul-15 00:30N 57°51' E 022°39'4 8.0
2017-Jul-15 00:00N 57°49' E 022°44'4 8.3
2017-Jul-14 23:30N 57°46' E 022°50'5 8.2
2017-Jul-14 22:53N 57°42' E 022°56'3 8.1
2017-Jul-14 22:30N 57°40' E 022°60'92 3.6
2017-Jul-13 20:32N 58°58' E 021°28'120.2
2017-Jul-13 20:30N 58°59' E 021°28'714.9
2017-Jul-13 20:01N 59°06' E 021°34'917.8
2017-Jul-13 19:30N 59°12' E 021°45'714.6
2017-Jul-13 19:01N 59°17' E 021°57'816.4
2017-Jul-13 18:30N 59°21' E 022°10'816.7
2017-Jul-13 18:01N 59°26' E 022°23'816.8
2017-Jul-13 17:30N 59°31' E 022°37'816.6
2017-Jul-13 17:00N 59°33' E 022°53'816.4
2017-Jul-13 16:30N 59°35' E 023°09'816.2
2017-Jul-13 16:00N 59°34' E 023°24'816.3
2017-Jul-13 15:30N 59°33' E 023°40'816.7
2017-Jul-13 15:00N 59°32' E 023°57'816.4
2017-Jul-13 14:30N 59°31' E 024°13'815.9
2017-Jul-13 14:00N 59°30' E 024°28'715.0
2017-Jul-13 13:31N 59°32' E 024°43'510.8
2017-Jul-13 13:01N 59°27' E 024°46'0 0.4
2017-Jul-13 12:28N 59°27' E 024°46'0 0.0
2017-Jul-13 11:58N 59°27' E 024°46'0 0.0
2017-Jul-13 11:28N 59°27' E 024°46'0 0.0
2017-Jul-13 10:58N 59°27' E 024°46'0 0.0
2017-Jul-13 10:28N 59°27' E 024°46'0 0.0
2017-Jul-13 09:58N 59°27' E 024°46'0 0.0
2017-Jul-13 09:28N 59°27' E 024°46'0 0.0
2017-Jul-13 08:58N 59°27' E 024°46'0 0.0
2017-Jul-13 08:28N 59°27' E 024°46'0 0.0
2017-Jul-13 07:58N 59°27' E 024°46'0 0.0
2017-Jul-13 07:28N 59°27' E 024°46'0 0.0
2017-Jul-13 06:58N 59°27' E 024°46'0 0.0
2017-Jul-13 06:28N 59°27' E 024°46'0 0.0
2017-Jul-13 05:58N 59°27' E 024°46'0 0.0
2017-Jul-13 05:28N 59°27' E 024°46'0 0.0
2017-Jul-13 04:58N 59°27' E 024°46'0 0.0
2017-Jul-13 04:28N 59°27' E 024°46'0 0.0
2017-Jul-13 03:58N 59°27' E 024°46'2 3.4
2017-Jul-13 03:31N 59°28' E 024°45'714.8
2017-Jul-13 03:01N 59°35' E 024°40'713.1
2017-Jul-13 02:31N 59°42' E 024°45'917.4
2017-Jul-13 02:00N 59°49' E 024°54'917.9
2017-Jul-13 01:30N 59°52' E 025°11'917.9
2017-Jul-13 01:00N 59°53' E 025°28'918.3
2017-Jul-13 00:30N 59°55' E 025°46'918.2
2017-Jul-13 00:00N 59°57' E 026°04'918.5
2017-Jul-12 23:31N 59°59' E 026°22'1019.1
2017-Jul-12 23:01N 60°01' E 026°41'1020.9
2017-Jul-12 22:31N 59°59' E 027°01'1019.5
2017-Jul-12 22:00N 60°04' E 027°18'918.6
2017-Jul-12 21:30N 60°09' E 027°34'816.8
2017-Jul-12 21:00N 60°12' E 027°50'1019.1
2017-Jul-12 20:30N 60°09' E 028°09'917.8
2017-Jul-12 20:01N 60°05' E 028°24'1019.9
2017-Jul-12 19:30N 60°03' E 028°44'816.9
2017-Jul-12 19:00N 60°02' E 029°01'918.5
2017-Jul-12 18:30N 60°02' E 029°19'1312.4
2017-Jul-12 17:29N 59°59' E 029°44'5 9.9
2017-Jul-12 17:00N 59°57' E 029°52'510.5
2017-Jul-12 16:30N 59°56' E 030°02'  

Dump ship's entire track history